sensor_id;sensor_type;location;lat;lon;timestamp;pressure;altitude;pressure_sealevel;temperature;humidity
3968;BME280;9221;42.646;23.380;2022-09-09T00:00:20;94837.94;;;19.93;74.78
3968;BME280;9221;42.646;23.380;2022-09-09T00:03:01;94814.47;;;19.95;75.16
3968;BME280;9221;42.646;23.380;2022-09-09T00:08:26;94781.03;;;19.65;76.23
3968;BME280;9221;42.646;23.380;2022-09-09T00:10:58;94775.63;;;19.51;76.77
3968;BME280;9221;42.646;23.380;2022-09-09T00:13:37;94768.84;;;19.55;76.34
3968;BME280;9221;42.646;23.380;2022-09-09T00:16:22;94798.31;;;19.69;76.63
3968;BME280;9221;42.646;23.380;2022-09-09T00:19:05;94843.41;;;19.72;76.63
3968;BME280;9221;42.646;23.380;2022-09-09T00:21:35;94756.59;;;19.19;77.37
3968;BME280;9221;42.646;23.380;2022-09-09T00:24:10;94801.53;;;19.44;78.13
3968;BME280;9221;42.646;23.380;2022-09-09T00:26:42;94741.34;;;19.13;77.28
3968;BME280;9221;42.646;23.380;2022-09-09T00:31:45;94781.78;;;19.52;77.35
3968;BME280;9221;42.646;23.380;2022-09-09T00:34:13;94788.78;;;19.46;76.76
3968;BME280;9221;42.646;23.380;2022-09-09T00:36:40;94779.69;;;19.34;77.26
3968;BME280;9221;42.646;23.380;2022-09-09T00:39:12;94771.84;;;19.25;77.32
3968;BME280;9221;42.646;23.380;2022-09-09T00:41:51;94776.66;;;19.02;78.11
3968;BME280;9221;42.646;23.380;2022-09-09T00:44:35;94802.00;;;18.77;78.96
3968;BME280;9221;42.646;23.380;2022-09-09T00:47:16;94735.28;;;18.56;79.65
3968;BME280;9221;42.646;23.380;2022-09-09T00:50:03;94763.72;;;18.70;79.84
3968;BME280;9221;42.646;23.380;2022-09-09T00:57:30;94763.19;;;18.53;80.29
3968;BME280;9221;42.646;23.380;2022-09-09T01:00:18;94726.03;;;18.23;80.06
3968;BME280;9221;42.646;23.380;2022-09-09T01:11:23;94791.25;;;18.71;79.61
3968;BME280;9221;42.646;23.380;2022-09-09T01:13:58;94773.81;;;18.75;78.65
3968;BME280;9221;42.646;23.380;2022-09-09T01:16:28;94722.03;;;18.41;78.95
3968;BME280;9221;42.646;23.380;2022-09-09T01:18:56;94755.94;;;18.75;78.37
3968;BME280;9221;42.646;23.380;2022-09-09T01:21:45;94769.47;;;18.74;78.52
3968;BME280;9221;42.646;23.380;2022-09-09T01:24:27;94792.34;;;18.83;78.23
3968;BME280;9221;42.646;23.380;2022-09-09T01:26:58;94770.44;;;18.88;77.82
3968;BME280;9221;42.646;23.380;2022-09-09T01:29:26;94696.22;;;18.48;77.77
3968;BME280;9221;42.646;23.380;2022-09-09T01:31:57;94743.03;;;18.86;77.71
3968;BME280;9221;42.646;23.380;2022-09-09T01:34:43;94757.63;;;18.83;77.89
3968;BME280;9221;42.646;23.380;2022-09-09T01:37:10;94753.91;;;18.77;78.25
3968;BME280;9221;42.646;23.380;2022-09-09T01:39:39;94758.78;;;18.74;78.37
3968;BME280;9221;42.646;23.380;2022-09-09T01:42:08;94720.84;;;18.50;77.93
3968;BME280;9221;42.646;23.380;2022-09-09T01:44:34;94788.59;;;18.71;77.83
3968;BME280;9221;42.646;23.380;2022-09-09T01:47:01;94721.22;;;18.40;78.38
3968;BME280;9221;42.646;23.380;2022-09-09T01:49:26;94638.78;;;17.96;78.17
3968;BME280;9221;42.646;23.380;2022-09-09T01:51:55;94717.72;;;18.40;78.26
3968;BME280;9221;42.646;23.380;2022-09-09T01:54:23;94684.84;;;18.04;78.34
3968;BME280;9221;42.646;23.380;2022-09-09T02:04:47;94788.53;;;18.92;76.85
3968;BME280;9221;42.646;23.380;2022-09-09T02:12:47;94726.09;;;18.65;76.55
3968;BME280;9221;42.646;23.380;2022-09-09T02:15:22;94789.31;;;18.86;77.66
3968;BME280;9221;42.646;23.380;2022-09-09T02:17:51;94771.13;;;18.75;78.05
3968;BME280;9221;42.646;23.380;2022-09-09T02:20:18;94804.84;;;18.76;78.40
3968;BME280;9221;42.646;23.380;2022-09-09T02:22:46;94770.03;;;18.63;79.00
3968;BME280;9221;42.646;23.380;2022-09-09T02:25:17;94753.09;;;18.49;80.12
3968;BME280;9221;42.646;23.380;2022-09-09T02:27:45;94748.50;;;18.36;79.59
3968;BME280;9221;42.646;23.380;2022-09-09T02:30:12;94712.84;;;18.15;78.97
3968;BME280;9221;42.646;23.380;2022-09-09T02:32:39;94785.56;;;18.46;78.99
3968;BME280;9221;42.646;23.380;2022-09-09T02:35:12;94771.66;;;18.57;78.55
3968;BME280;9221;42.646;23.380;2022-09-09T02:37:40;94795.25;;;18.53;78.75
3968;BME280;9221;42.646;23.380;2022-09-09T02:40:09;94762.31;;;18.46;78.85
3968;BME280;9221;42.646;23.380;2022-09-09T02:42:39;94762.41;;;18.59;78.37
3968;BME280;9221;42.646;23.380;2022-09-09T02:45:06;94715.63;;;18.07;78.68
3968;BME280;9221;42.646;23.380;2022-09-09T02:47:35;94711.72;;;17.81;79.98
3968;BME280;9221;42.646;23.380;2022-09-09T02:50:19;94722.06;;;17.91;79.76
3968;BME280;9221;42.646;23.380;2022-09-09T02:57:58;94750.06;;;18.23;79.06
3968;BME280;9221;42.646;23.380;2022-09-09T03:00:26;94786.50;;;18.38;79.75
3968;BME280;9221;42.646;23.380;2022-09-09T03:02:52;94771.00;;;18.48;79.90
3968;BME280;9221;42.646;23.380;2022-09-09T03:05:19;94764.94;;;18.39;79.36
3968;BME280;9221;42.646;23.380;2022-09-09T03:07:46;94766.06;;;18.52;79.87
3968;BME280;9221;42.646;23.380;2022-09-09T03:10:11;94773.09;;;18.59;79.47
3968;BME280;9221;42.646;23.380;2022-09-09T03:12:37;94779.94;;;18.69;79.52
3968;BME280;9221;42.646;23.380;2022-09-09T03:15:02;94762.88;;;18.70;79.40
3968;BME280;9221;42.646;23.380;2022-09-09T03:17:28;94734.63;;;18.82;78.85
3968;BME280;9221;42.646;23.380;2022-09-09T03:19:53;94747.44;;;18.93;79.14
3968;BME280;9221;42.646;23.380;2022-09-09T03:22:20;94766.66;;;19.17;78.77
3968;BME280;9221;42.646;23.380;2022-09-09T03:24:46;94753.63;;;19.01;78.64
3968;BME280;9221;42.646;23.380;2022-09-09T03:27:12;94792.03;;;19.35;78.78
3968;BME280;9221;42.646;23.380;2022-09-09T03:29:39;94790.00;;;19.43;78.21
3968;BME280;9221;42.646;23.380;2022-09-09T03:32:05;94754.13;;;19.24;77.98
3968;BME280;9221;42.646;23.380;2022-09-09T03:34:30;94772.28;;;19.36;78.11
3968;BME280;9221;42.646;23.380;2022-09-09T03:36:56;94794.03;;;19.19;79.10
3968;BME280;9221;42.646;23.380;2022-09-09T03:39:22;94801.88;;;19.27;79.25
3968;BME280;9221;42.646;23.380;2022-09-09T03:41:47;94807.28;;;19.34;78.56
3968;BME280;9221;42.646;23.380;2022-09-09T03:44:14;94806.44;;;19.40;78.59
3968;BME280;9221;42.646;23.380;2022-09-09T03:46:39;94783.78;;;19.30;78.55
3968;BME280;9221;42.646;23.380;2022-09-09T03:49:05;94792.72;;;19.02;79.82
3968;BME280;9221;42.646;23.380;2022-09-09T03:51:30;94722.03;;;18.41;80.77
3968;BME280;9221;42.646;23.380;2022-09-09T03:53:56;94793.00;;;18.85;81.03
3968;BME280;9221;42.646;23.380;2022-09-09T03:56:23;94777.53;;;18.46;82.68
3968;BME280;9221;42.646;23.380;2022-09-09T03:58:49;94793.50;;;18.39;83.49
3968;BME280;9221;42.646;23.380;2022-09-09T04:01:15;94726.84;;;17.96;83.53
3968;BME280;9221;42.646;23.380;2022-09-09T04:03:43;94789.25;;;18.23;83.25
3968;BME280;9221;42.646;23.380;2022-09-09T04:06:11;94793.22;;;18.55;83.26
3968;BME280;9221;42.646;23.380;2022-09-09T04:08:38;94772.16;;;18.39;83.08
3968;BME280;9221;42.646;23.380;2022-09-09T04:11:04;94745.63;;;18.09;83.50
3968;BME280;9221;42.646;23.380;2022-09-09T04:13:33;94788.94;;;18.33;83.82
3968;BME280;9221;42.646;23.380;2022-09-09T04:16:00;94764.75;;;18.41;83.51
3968;BME280;9221;42.646;23.380;2022-09-09T04:18:26;94800.88;;;18.37;83.92
3968;BME280;9221;42.646;23.380;2022-09-09T04:20:53;94789.72;;;18.26;84.22
3968;BME280;9221;42.646;23.380;2022-09-09T04:23:20;94736.25;;;17.91;84.65
3968;BME280;9221;42.646;23.380;2022-09-09T04:25:50;94757.06;;;18.03;84.54
3968;BME280;9221;42.646;23.380;2022-09-09T04:28:17;94798.16;;;18.30;85.04
3968;BME280;9221;42.646;23.380;2022-09-09T04:30:44;94789.56;;;18.35;84.24
3968;BME280;9221;42.646;23.380;2022-09-09T04:33:10;94794.84;;;18.28;84.43
3968;BME280;9221;42.646;23.380;2022-09-09T04:35:36;94722.81;;;18.06;84.08
3968;BME280;9221;42.646;23.380;2022-09-09T04:38:02;94808.69;;;18.38;84.00
3968;BME280;9221;42.646;23.380;2022-09-09T04:40:29;94785.06;;;18.14;83.76
3968;BME280;9221;42.646;23.380;2022-09-09T04:42:57;94785.53;;;18.17;83.26
3968;BME280;9221;42.646;23.380;2022-09-09T04:45:22;94752.56;;;18.03;83.03
3968;BME280;9221;42.646;23.380;2022-09-09T04:47:48;94817.16;;;18.20;82.72
3968;BME280;9221;42.646;23.380;2022-09-09T04:50:14;94813.34;;;18.08;82.90
3968;BME280;9221;42.646;23.380;2022-09-09T04:52:39;94770.66;;;17.65;83.25
3968;BME280;9221;42.646;23.380;2022-09-09T04:55:06;94835.69;;;17.85;83.35
3968;BME280;9221;42.646;23.380;2022-09-09T04:57:32;94781.19;;;17.73;83.41
3968;BME280;9221;42.646;23.380;2022-09-09T04:59:59;94774.81;;;17.74;83.41
3968;BME280;9221;42.646;23.380;2022-09-09T05:02:26;94773.13;;;17.66;83.08
3968;BME280;9221;42.646;23.380;2022-09-09T05:04:51;94732.25;;;17.44;83.04
3968;BME280;9221;42.646;23.380;2022-09-09T05:07:17;94789.97;;;17.88;83.26
3968;BME280;9221;42.646;23.380;2022-09-09T05:09:42;94782.44;;;17.92;83.10
3968;BME280;9221;42.646;23.380;2022-09-09T05:12:08;94733.66;;;17.83;83.26
3968;BME280;9221;42.646;23.380;2022-09-09T05:14:33;94768.63;;;18.38;81.82
3968;BME280;9221;42.646;23.380;2022-09-09T05:17:01;94766.81;;;18.39;81.14
3968;BME280;9221;42.646;23.380;2022-09-09T05:19:27;94735.88;;;18.23;80.60
3968;BME280;9221;42.646;23.380;2022-09-09T05:21:52;94765.41;;;18.43;80.20
3968;BME280;9221;42.646;23.380;2022-09-09T05:24:18;94787.00;;;18.48;80.26
3968;BME280;9221;42.646;23.380;2022-09-09T05:26:43;94711.03;;;18.22;80.27
3968;BME280;9221;42.646;23.380;2022-09-09T05:29:09;94762.50;;;18.73;78.89
3968;BME280;9221;42.646;23.380;2022-09-09T05:31:34;94631.31;;;18.13;78.23
3968;BME280;9221;42.646;23.380;2022-09-09T05:34:00;94766.94;;;19.36;77.43
3968;BME280;9221;42.646;23.380;2022-09-09T05:36:25;94767.84;;;19.56;76.12
3968;BME280;9221;42.646;23.380;2022-09-09T05:38:51;94785.50;;;19.44;74.35
3968;BME280;9221;42.646;23.380;2022-09-09T05:41:18;94756.59;;;19.88;74.04
3968;BME280;9221;42.646;23.380;2022-09-09T05:43:45;94759.28;;;20.21;73.46
3968;BME280;9221;42.646;23.380;2022-09-09T05:46:14;94779.06;;;19.93;72.61
3968;BME280;9221;42.646;23.380;2022-09-09T05:48:41;94716.19;;;19.49;72.81
3968;BME280;9221;42.646;23.380;2022-09-09T05:51:10;94689.84;;;19.59;71.14
3968;BME280;9221;42.646;23.380;2022-09-09T05:53:38;94724.47;;;20.21;70.15
3968;BME280;9221;42.646;23.380;2022-09-09T05:56:09;94731.06;;;20.52;69.33
3968;BME280;9221;42.646;23.380;2022-09-09T05:58:38;94760.25;;;21.01;68.27
3968;BME280;9221;42.646;23.380;2022-09-09T06:01:11;94780.19;;;21.18;67.48
3968;BME280;9221;42.646;23.380;2022-09-09T06:03:41;94778.06;;;21.34;66.97
3968;BME280;9221;42.646;23.380;2022-09-09T06:06:10;94811.88;;;21.48;66.20
3968;BME280;9221;42.646;23.380;2022-09-09T06:08:38;94784.25;;;21.41;65.31
3968;BME280;9221;42.646;23.380;2022-09-09T06:11:09;94747.59;;;21.21;64.33
3968;BME280;9221;42.646;23.380;2022-09-09T06:13:35;94749.22;;;21.22;64.40
3968;BME280;9221;42.646;23.380;2022-09-09T06:16:02;94813.09;;;21.52;64.69
3968;BME280;9221;42.646;23.380;2022-09-09T06:18:28;94736.78;;;21.35;64.09
3968;BME280;9221;42.646;23.380;2022-09-09T06:20:59;94780.00;;;21.72;63.31
3968;BME280;9221;42.646;23.380;2022-09-09T06:23:26;94813.78;;;21.86;62.90
3968;BME280;9221;42.646;23.380;2022-09-09T06:28:28;94820.28;;;21.00;65.24
3968;BME280;9221;42.646;23.380;2022-09-09T06:31:04;94748.97;;;20.58;66.04
3968;BME280;9221;42.646;23.380;2022-09-09T06:33:35;94791.31;;;21.28;65.61
3968;BME280;9221;42.646;23.380;2022-09-09T06:36:02;94806.31;;;21.43;64.57
3968;BME280;9221;42.646;23.380;2022-09-09T06:38:29;94780.09;;;21.58;64.20
3968;BME280;9221;42.646;23.380;2022-09-09T06:40:55;94820.84;;;21.80;63.55
3968;BME280;9221;42.646;23.380;2022-09-09T06:43:22;94784.94;;;22.07;63.32
3968;BME280;9221;42.646;23.380;2022-09-09T06:45:57;94808.78;;;22.28;63.62
3968;BME280;9221;42.646;23.380;2022-09-09T06:48:23;94738.53;;;22.00;63.34
3968;BME280;9221;42.646;23.380;2022-09-09T06:50:51;94812.16;;;22.49;62.71
3968;BME280;9221;42.646;23.380;2022-09-09T06:53:24;94773.63;;;22.55;61.66
3968;BME280;9221;42.646;23.380;2022-09-09T06:55:51;94791.63;;;22.80;61.17
3968;BME280;9221;42.646;23.380;2022-09-09T06:58:16;94751.72;;;22.58;61.02
3968;BME280;9221;42.646;23.380;2022-09-09T07:00:42;94795.16;;;22.99;60.92
3968;BME280;9221;42.646;23.380;2022-09-09T07:03:07;94785.16;;;23.06;61.66
3968;BME280;9221;42.646;23.380;2022-09-09T07:05:34;94802.00;;;23.20;60.24
3968;BME280;9221;42.646;23.380;2022-09-09T07:08:00;94770.13;;;22.98;60.44
3968;BME280;9221;42.646;23.380;2022-09-09T07:10:25;94830.19;;;23.55;59.70
3968;BME280;9221;42.646;23.380;2022-09-09T07:12:51;94748.09;;;22.90;59.14
3968;BME280;9221;42.646;23.380;2022-09-09T07:15:18;94805.38;;;23.83;58.40
3968;BME280;9221;42.646;23.380;2022-09-09T07:17:45;94853.66;;;24.03;57.59
3968;BME280;9221;42.646;23.380;2022-09-09T07:20:10;94798.41;;;24.24;56.59
3968;BME280;9221;42.646;23.380;2022-09-09T07:22:36;94801.63;;;24.45;55.89
3968;BME280;9221;42.646;23.380;2022-09-09T07:25:02;94798.75;;;24.70;54.93
3968;BME280;9221;42.646;23.380;2022-09-09T07:27:28;94741.16;;;24.64;54.17
3968;BME280;9221;42.646;23.380;2022-09-09T07:29:53;94766.94;;;25.08;53.17
3968;BME280;9221;42.646;23.380;2022-09-09T07:32:19;94770.22;;;25.33;52.87
3968;BME280;9221;42.646;23.380;2022-09-09T07:34:45;94730.75;;;25.32;52.22
3968;BME280;9221;42.646;23.380;2022-09-09T07:37:12;94737.28;;;25.60;51.92
3968;BME280;9221;42.646;23.380;2022-09-09T07:39:38;94727.13;;;25.67;50.11
3968;BME280;9221;42.646;23.380;2022-09-09T07:42:04;94768.47;;;25.97;49.74
3968;BME280;9221;42.646;23.380;2022-09-09T07:44:30;94736.00;;;25.80;48.54
3968;BME280;9221;42.646;23.380;2022-09-09T07:46:57;94802.88;;;26.01;48.90
3968;BME280;9221;42.646;23.380;2022-09-09T07:49:23;94803.28;;;26.22;48.88
3968;BME280;9221;42.646;23.380;2022-09-09T07:51:49;94780.69;;;26.62;48.30
3968;BME280;9221;42.646;23.380;2022-09-09T07:54:17;94790.03;;;26.89;47.12
3968;BME280;9221;42.646;23.380;2022-09-09T07:56:46;94804.22;;;27.13;46.49
3968;BME280;9221;42.646;23.380;2022-09-09T07:59:12;94778.19;;;27.12;46.58
3968;BME280;9221;42.646;23.380;2022-09-09T08:01:44;94816.72;;;27.53;46.09
3968;BME280;9221;42.646;23.380;2022-09-09T08:04:13;94701.59;;;27.11;45.18
3968;BME280;9221;42.646;23.380;2022-09-09T08:06:48;94787.03;;;28.13;44.19
3968;BME280;9221;42.646;23.380;2022-09-09T08:09:14;94784.59;;;28.39;43.27
3968;BME280;9221;42.646;23.380;2022-09-09T08:11:40;94772.47;;;28.19;42.88
3968;BME280;9221;42.646;23.380;2022-09-09T08:14:07;94794.22;;;28.24;44.21
3968;BME280;9221;42.646;23.380;2022-09-09T08:16:35;94780.63;;;28.19;43.80
3968;BME280;9221;42.646;23.380;2022-09-09T08:19:02;94802.25;;;28.14;43.82
3968;BME280;9221;42.646;23.380;2022-09-09T08:21:30;94785.44;;;28.12;43.64
3968;BME280;9221;42.646;23.380;2022-09-09T08:23:58;94812.03;;;28.15;44.30
3968;BME280;9221;42.646;23.380;2022-09-09T08:26:26;94728.03;;;27.70;43.88
3968;BME280;9221;42.646;23.380;2022-09-09T08:28:54;94814.81;;;28.20;43.70
3968;BME280;9221;42.646;23.380;2022-09-09T08:31:26;94827.91;;;28.28;43.81
3968;BME280;9221;42.646;23.380;2022-09-09T08:33:53;94681.94;;;27.21;44.52
3968;BME280;9221;42.646;23.380;2022-09-09T08:36:21;94782.81;;;27.73;45.09
3968;BME280;9221;42.646;23.380;2022-09-09T08:38:51;94776.69;;;27.82;45.20
3968;BME280;9221;42.646;23.380;2022-09-09T08:41:35;94775.41;;;27.90;44.76
3968;BME280;9221;42.646;23.380;2022-09-09T08:47:20;94779.34;;;27.16;45.10
3968;BME280;9221;42.646;23.380;2022-09-09T08:50:18;94769.69;;;27.03;45.69
3968;BME280;9221;42.646;23.380;2022-09-09T08:55:56;94775.44;;;27.07;45.83
3968;BME280;9221;42.646;23.380;2022-09-09T08:58:35;94632.09;;;25.25;48.07
3968;BME280;9221;42.646;23.380;2022-09-09T09:06:31;94769.53;;;27.10;47.27
3968;BME280;9221;42.646;23.380;2022-09-09T09:09:08;94788.16;;;27.28;46.62
3968;BME280;9221;42.646;23.380;2022-09-09T09:11:45;94742.38;;;27.44;46.51
3968;BME280;9221;42.646;23.380;2022-09-09T09:14:20;94774.97;;;27.98;45.24
3968;BME280;9221;42.646;23.380;2022-09-09T09:17:00;94717.16;;;28.20;43.98
3968;BME280;9221;42.646;23.380;2022-09-09T09:19:27;94764.03;;;28.48;42.69
3968;BME280;9221;42.646;23.380;2022-09-09T09:22:06;94784.22;;;28.62;42.57
3968;BME280;9221;42.646;23.380;2022-09-09T09:24:45;94776.34;;;28.61;42.47
3968;BME280;9221;42.646;23.380;2022-09-09T09:27:15;94743.06;;;28.06;42.86
3968;BME280;9221;42.646;23.380;2022-09-09T09:29:44;94781.22;;;28.26;43.25
3968;BME280;9221;42.646;23.380;2022-09-09T09:32:16;94755.06;;;28.42;43.44
3968;BME280;9221;42.646;23.380;2022-09-09T09:34:49;94716.06;;;28.16;43.15
3968;BME280;9221;42.646;23.380;2022-09-09T09:37:32;94760.13;;;28.33;42.75
3968;BME280;9221;42.646;23.380;2022-09-09T09:40:14;94789.81;;;28.45;43.46
3968;BME280;9221;42.646;23.380;2022-09-09T09:43:00;94753.16;;;28.43;43.50
3968;BME280;9221;42.646;23.380;2022-09-09T09:45:34;94711.34;;;28.39;43.81
3968;BME280;9221;42.646;23.380;2022-09-09T09:48:05;94757.63;;;28.92;42.91
3968;BME280;9221;42.646;23.380;2022-09-09T09:50:32;94741.13;;;28.33;43.27
3968;BME280;9221;42.646;23.380;2022-09-09T09:53:27;94696.34;;;28.63;43.91
3968;BME280;9221;42.646;23.380;2022-09-09T09:55:58;94752.06;;;29.19;43.16
3968;BME280;9221;42.646;23.380;2022-09-09T09:58:26;94736.34;;;28.46;43.25
3968;BME280;9221;42.646;23.380;2022-09-09T10:00:54;94733.81;;;28.34;44.44
3968;BME280;9221;42.646;23.380;2022-09-09T10:03:31;94730.75;;;28.25;43.11
3968;BME280;9221;42.646;23.380;2022-09-09T10:05:57;94609.91;;;26.98;44.28
3968;BME280;9221;42.646;23.380;2022-09-09T10:08:24;94733.44;;;27.93;44.52
3968;BME280;9221;42.646;23.380;2022-09-09T10:19:30;94765.94;;;28.80;43.40
3968;BME280;9221;42.646;23.380;2022-09-09T10:27:51;94750.28;;;28.92;42.94
3968;BME280;9221;42.646;23.380;2022-09-09T10:33:09;94765.94;;;28.75;43.93
3968;BME280;9221;42.646;23.380;2022-09-09T10:38:59;94777.09;;;28.83;43.23
3968;BME280;9221;42.646;23.380;2022-09-09T10:41:18;94758.31;;;28.77;43.29
3968;BME280;9221;42.646;23.380;2022-09-09T10:46:42;94748.34;;;28.55;43.31
3968;BME280;9221;42.646;23.380;2022-09-09T10:49:41;94771.34;;;28.42;43.63
3968;BME280;9221;42.646;23.380;2022-09-09T10:52:42;94751.44;;;28.31;43.71
3968;BME280;9221;42.646;23.380;2022-09-09T10:55:19;94754.50;;;28.13;44.41
3968;BME280;9221;42.646;23.380;2022-09-09T10:57:50;94771.81;;;28.07;44.33
3968;BME280;9221;42.646;23.380;2022-09-09T11:00:24;94737.94;;;28.09;44.46
3968;BME280;9221;42.646;23.380;2022-09-09T11:03:02;94729.34;;;27.90;45.26
3968;BME280;9221;42.646;23.380;2022-09-09T11:05:45;94741.56;;;27.93;45.22
3968;BME280;9221;42.646;23.380;2022-09-09T11:08:24;94758.81;;;27.86;45.25
3968;BME280;9221;42.646;23.380;2022-09-09T11:11:04;94751.41;;;27.77;45.60
3968;BME280;9221;42.646;23.380;2022-09-09T11:27:38;94741.28;;;27.94;45.96
3968;BME280;9221;42.646;23.380;2022-09-09T11:30:24;94712.88;;;27.75;45.83
3968;BME280;9221;42.646;23.380;2022-09-09T11:33:17;94726.53;;;28.07;46.05
3968;BME280;9221;42.646;23.380;2022-09-09T11:38:46;94742.25;;;28.05;45.86
3968;BME280;9221;42.646;23.380;2022-09-09T11:41:14;94709.72;;;28.05;46.12
3968;BME280;9221;42.646;23.380;2022-09-09T11:43:45;94693.84;;;27.64;46.69
3968;BME280;9221;42.646;23.380;2022-09-09T11:46:16;94692.56;;;27.72;46.51
3968;BME280;9221;42.646;23.380;2022-09-09T11:48:44;94699.47;;;27.85;46.41
3968;BME280;9221;42.646;23.380;2022-09-09T11:53:53;94697.81;;;27.84;48.25
3968;BME280;9221;42.646;23.380;2022-09-09T11:56:30;94646.59;;;27.55;49.55
3968;BME280;9221;42.646;23.380;2022-09-09T12:02:12;94661.38;;;27.69;49.01
3968;BME280;9221;42.646;23.380;2022-09-09T12:05:08;94663.63;;;27.83;48.95
3968;BME280;9221;42.646;23.380;2022-09-09T12:07:39;94670.81;;;27.94;47.73
3968;BME280;9221;42.646;23.380;2022-09-09T12:12:34;94673.03;;;28.30;46.95
3968;BME280;9221;42.646;23.380;2022-09-09T12:17:30;94637.34;;;28.11;46.81
3968;BME280;9221;42.646;23.380;2022-09-09T12:20:20;94661.75;;;28.11;47.21
3968;BME280;9221;42.646;23.380;2022-09-09T12:28:30;94673.06;;;27.75;47.09
3968;BME280;9221;42.646;23.380;2022-09-09T12:33:36;94617.56;;;27.83;47.25
3968;BME280;9221;42.646;23.380;2022-09-09T12:36:04;94551.44;;;27.84;46.50
3968;BME280;9221;42.646;23.380;2022-09-09T12:38:32;94642.09;;;28.68;46.22
3968;BME280;9221;42.646;23.380;2022-09-09T12:40:59;94631.66;;;28.50;46.48
3968;BME280;9221;42.646;23.380;2022-09-09T12:43:26;94638.22;;;28.59;46.77
3968;BME280;9221;42.646;23.380;2022-09-09T12:46:32;94588.47;;;28.38;45.46
3968;BME280;9221;42.646;23.380;2022-09-09T12:48:59;94585.44;;;28.34;46.32
3968;BME280;9221;42.646;23.380;2022-09-09T12:51:29;94642.16;;;28.79;45.67
3968;BME280;9221;42.646;23.380;2022-09-09T12:53:56;94628.09;;;28.92;45.25
3968;BME280;9221;42.646;23.380;2022-09-09T12:56:24;94666.44;;;29.01;45.06
3968;BME280;9221;42.646;23.380;2022-09-09T12:58:52;94603.56;;;28.72;45.56
3968;BME280;9221;42.646;23.380;2022-09-09T13:01:30;94562.91;;;28.29;46.05
3968;BME280;9221;42.646;23.380;2022-09-09T13:03:56;94612.94;;;28.53;45.27
3968;BME280;9221;42.646;23.380;2022-09-09T13:06:27;94616.97;;;28.41;46.88
3968;BME280;9221;42.646;23.380;2022-09-09T13:08:54;94673.66;;;28.80;45.67
3968;BME280;9221;42.646;23.380;2022-09-09T13:11:26;94562.59;;;28.68;44.85
3968;BME280;9221;42.646;23.380;2022-09-09T13:13:55;94528.16;;;28.84;46.20
3968;BME280;9221;42.646;23.380;2022-09-09T13:16:30;94600.34;;;29.43;46.32
3968;BME280;9221;42.646;23.380;2022-09-09T13:19:02;94602.25;;;29.53;45.03
3968;BME280;9221;42.646;23.380;2022-09-09T13:21:33;94589.22;;;29.65;43.78
3968;BME280;9221;42.646;23.380;2022-09-09T13:23:59;94602.84;;;29.96;43.11
3968;BME280;9221;42.646;23.380;2022-09-09T13:26:28;94592.78;;;29.92;43.07
3968;BME280;9221;42.646;23.380;2022-09-09T13:29:07;94592.50;;;29.98;43.31
3968;BME280;9221;42.646;23.380;2022-09-09T13:31:40;94588.16;;;30.13;42.43
3968;BME280;9221;42.646;23.380;2022-09-09T13:34:13;94545.19;;;29.99;43.39
3968;BME280;9221;42.646;23.380;2022-09-09T13:36:40;94585.13;;;30.19;43.04
3968;BME280;9221;42.646;23.380;2022-09-09T13:39:15;94597.13;;;29.77;43.43
3968;BME280;9221;42.646;23.380;2022-09-09T13:41:43;94534.31;;;29.58;44.26
3968;BME280;9221;42.646;23.380;2022-09-09T13:47:00;94576.00;;;29.00;46.29
3968;BME280;9221;42.646;23.380;2022-09-09T13:49:29;94597.19;;;29.09;46.74
3968;BME280;9221;42.646;23.380;2022-09-09T13:52:15;94567.34;;;29.03;47.45
3968;BME280;9221;42.646;23.380;2022-09-09T13:54:42;94603.09;;;28.85;46.70
3968;BME280;9221;42.646;23.380;2022-09-09T13:57:24;94509.03;;;28.53;47.03
3968;BME280;9221;42.646;23.380;2022-09-09T13:59:53;94530.75;;;28.58;46.81
3968;BME280;9221;42.646;23.380;2022-09-09T14:02:22;94587.88;;;28.84;47.21
3968;BME280;9221;42.646;23.380;2022-09-09T14:04:48;94552.59;;;28.79;47.52
3968;BME280;9221;42.646;23.380;2022-09-09T14:07:17;94562.59;;;28.73;47.30
3968;BME280;9221;42.646;23.380;2022-09-09T14:09:43;94585.59;;;28.60;46.76
3968;BME280;9221;42.646;23.380;2022-09-09T14:12:11;94587.53;;;28.65;47.39
3968;BME280;9221;42.646;23.380;2022-09-09T14:14:37;94526.41;;;28.52;47.15
3968;BME280;9221;42.646;23.380;2022-09-09T14:17:02;94551.50;;;28.85;47.07
3968;BME280;9221;42.646;23.380;2022-09-09T14:19:29;94551.22;;;28.76;47.13
3968;BME280;9221;42.646;23.380;2022-09-09T14:21:54;94561.84;;;28.83;46.88
3968;BME280;9221;42.646;23.380;2022-09-09T14:24:19;94507.44;;;28.57;46.41
3968;BME280;9221;42.646;23.380;2022-09-09T14:26:45;94559.09;;;28.78;47.26
3968;BME280;9221;42.646;23.380;2022-09-09T14:29:10;94550.38;;;28.65;46.75
3968;BME280;9221;42.646;23.380;2022-09-09T14:31:36;94563.25;;;28.43;47.28
3968;BME280;9221;42.646;23.380;2022-09-09T14:34:01;94558.97;;;28.62;47.53
3968;BME280;9221;42.646;23.380;2022-09-09T14:36:26;94511.13;;;28.35;47.53
3968;BME280;9221;42.646;23.380;2022-09-09T14:38:52;94494.03;;;28.35;47.63
3968;BME280;9221;42.646;23.380;2022-09-09T14:41:19;94543.31;;;28.64;47.70
3968;BME280;9221;42.646;23.380;2022-09-09T14:43:48;94542.25;;;28.70;48.59
3968;BME280;9221;42.646;23.380;2022-09-09T14:46:15;94499.66;;;28.18;48.49
3968;BME280;9221;42.646;23.380;2022-09-09T14:48:41;94549.63;;;28.32;49.02
3968;BME280;9221;42.646;23.380;2022-09-09T14:51:11;94536.56;;;28.29;49.22
3968;BME280;9221;42.646;23.380;2022-09-09T14:53:38;94479.66;;;27.86;49.71
3968;BME280;9221;42.646;23.380;2022-09-09T14:56:09;94539.16;;;28.03;49.43
3968;BME280;9221;42.646;23.380;2022-09-09T14:58:35;94549.47;;;28.07;49.44
3968;BME280;9221;42.646;23.380;2022-09-09T15:01:06;94543.78;;;28.08;49.89
3968;BME280;9221;42.646;23.380;2022-09-09T15:03:32;94544.47;;;27.93;49.89
3968;BME280;9221;42.646;23.380;2022-09-09T15:05:58;94539.22;;;27.81;50.26
3968;BME280;9221;42.646;23.380;2022-09-09T15:08:24;94572.00;;;27.80;50.75
3968;BME280;9221;42.646;23.380;2022-09-09T15:10:58;94591.38;;;27.61;51.55
3968;BME280;9221;42.646;23.380;2022-09-09T15:13:24;94557.31;;;27.70;50.96
3968;BME280;9221;42.646;23.380;2022-09-09T15:15:49;94522.22;;;27.53;51.23
3968;BME280;9221;42.646;23.380;2022-09-09T15:18:15;94568.19;;;27.76;50.42